Aérodrome :
LOGIN :

S'inscrire | Disclaimer

   EN    FR    IT 

 










Légende :    VFR   VFR Marginal   IFR   IFR Intensif   IFR Très Intensif
Visi : 
Plafond : 
>= 8 km
>= 3000ft
5 à 8 km
1000 à 3000 ft
1500m à 5 km
500 à 1000 ft
800 à 1500m
200 à 500 ft
< 800m
< 200 ft
Symboles :   Orages  Brouillard  Fortes neiges  Fortes précipitations  Vent > 20 kt
SIGMETs :   Divers  Orages  Givrage  Turbulence  Onde Orograph.  Cendres Volcan.







- Altitude de l'aérodrome : -15 ft
- Code IATA : RTM


EHRD - Rotterdam Zestienhoven

DERNIER METAR :
  • 232125Z AUTO 09006KT 9999 NSC 16/09 Q0996 NOSIG

METARs EXPIRÉS :
  • 232055Z AUTO 10007KT 060V120 9999 NSC 16/09 Q0996 NOSIG
  • 232025Z AUTO 09007KT 070V130 9999 NSC 17/08 Q0996 NOSIG
  • 231955Z AUTO 09006KT 9999 NSC 17/08 Q0996 NOSIG
  • 231925Z AUTO 09007KT 9999 NSC 17/08 Q0996 NOSIG

TAF TAF EHRD
Valide du 23 à 18h jusqu'au 25 à 00h UTC


231716Z 2318/2424 09007KT CAVOK
BECMG 2403/2406 16010KT
BECMG 2408/2411 16020G30KT
PROB30
TEMPO 2415/2418 18025G38KT 6000 SHRA TSRA SCT050CB
BECMG 2418/2420 16010KT
TEMPO 2418/2422 6000 SHRA RA SCT030 SCT050CB
PROB30
TEMPO 2418/2420 18023G35KT 4000 TSRA SCT020 BKN030 SCT040CB
Pas de NOTAMs connus pour ce terrain.



MET'MAP, la Météo Aéronautique d'un coup d'oeil ! - Copyright ORBIFLY Décembre 2007 - Disclaimer

ORBIFLY MET'MAP TEAM :

Programmation & Développement : Alexandra Zaïnal
Conception & Développement : Baudouin d'Aumeries
Co-Programmation & Développement : Marc-Olivier Méhu
Soutien technique & logistique : Manuel Goepfert

Contact : metmap@orbifly.com




SOURCES & CREDITS :

   NOAA